sensor_id;sensor_type;location;lat;lon;timestamp;P1;durP1;ratioP1;P2;durP2;ratioP2
41043;SDS011;51680;49.806;18.774;2023-12-07T00:01:50;218.60;;;92.13;;
41043;SDS011;51680;49.806;18.774;2023-12-07T00:04:52;213.52;;;93.65;;
41043;SDS011;51680;49.806;18.774;2023-12-07T00:07:55;210.20;;;88.93;;
41043;SDS011;51680;49.806;18.774;2023-12-07T00:10:57;197.80;;;91.93;;
41043;SDS011;51680;49.806;18.774;2023-12-07T00:14:00;202.15;;;91.63;;
41043;SDS011;51680;49.806;18.774;2023-12-07T00:17:02;200.85;;;90.80;;
41043;SDS011;51680;49.806;18.774;2023-12-07T00:20:05;200.43;;;90.18;;
41043;SDS011;51680;49.806;18.774;2023-12-07T00:23:09;207.68;;;94.32;;
41043;SDS011;51680;49.806;18.774;2023-12-07T00:26:29;195.25;;;89.13;;
41043;SDS011;51680;49.806;18.774;2023-12-07T00:29:31;208.10;;;91.63;;
41043;SDS011;51680;49.806;18.774;2023-12-07T00:32:33;209.88;;;92.57;;
41043;SDS011;51680;49.806;18.774;2023-12-07T00:35:35;212.25;;;89.63;;
41043;SDS011;51680;49.806;18.774;2023-12-07T00:38:38;197.93;;;88.78;;
41043;SDS011;51680;49.806;18.774;2023-12-07T00:41:41;207.68;;;92.05;;
41043;SDS011;51680;49.806;18.774;2023-12-07T00:44:43;203.18;;;90.40;;
41043;SDS011;51680;49.806;18.774;2023-12-07T00:47:45;201.30;;;90.55;;
41043;SDS011;51680;49.806;18.774;2023-12-07T00:50:47;198.50;;;88.22;;
41043;SDS011;51680;49.806;18.774;2023-12-07T00:53:50;192.63;;;88.10;;
41043;SDS011;51680;49.806;18.774;2023-12-07T00:56:52;194.82;;;87.32;;
41043;SDS011;51680;49.806;18.774;2023-12-07T00:59:54;195.00;;;85.97;;
41043;SDS011;51680;49.806;18.774;2023-12-07T01:02:56;195.52;;;88.93;;
41043;SDS011;51680;49.806;18.774;2023-12-07T01:05:58;192.38;;;86.90;;
41043;SDS011;51680;49.806;18.774;2023-12-07T01:09:01;200.98;;;86.70;;
41043;SDS011;51680;49.806;18.774;2023-12-07T01:12:04;198.40;;;86.90;;
41043;SDS011;51680;49.806;18.774;2023-12-07T01:15:06;196.90;;;86.32;;
41043;SDS011;51680;49.806;18.774;2023-12-07T01:18:09;186.90;;;86.20;;
41043;SDS011;51680;49.806;18.774;2023-12-07T01:21:11;190.93;;;87.00;;
41043;SDS011;51680;49.806;18.774;2023-12-07T01:24:14;179.32;;;81.95;;
41043;SDS011;51680;49.806;18.774;2023-12-07T01:30:18;186.43;;;84.22;;
41043;SDS011;51680;49.806;18.774;2023-12-07T01:33:20;186.00;;;83.53;;
41043;SDS011;51680;49.806;18.774;2023-12-07T01:36:22;186.02;;;84.25;;
41043;SDS011;51680;49.806;18.774;2023-12-07T01:39:26;183.38;;;83.32;;
41043;SDS011;51680;49.806;18.774;2023-12-07T01:42:28;181.00;;;81.78;;
41043;SDS011;51680;49.806;18.774;2023-12-07T01:45:30;178.43;;;81.15;;
41043;SDS011;51680;49.806;18.774;2023-12-07T01:48:32;169.55;;;80.72;;
41043;SDS011;51680;49.806;18.774;2023-12-07T01:51:34;185.75;;;83.78;;
41043;SDS011;51680;49.806;18.774;2023-12-07T01:54:38;173.95;;;79.38;;
41043;SDS011;51680;49.806;18.774;2023-12-07T02:00:43;167.88;;;76.82;;
41043;SDS011;51680;49.806;18.774;2023-12-07T02:03:46;173.05;;;75.70;;
41043;SDS011;51680;49.806;18.774;2023-12-07T02:06:48;170.00;;;77.00;;
41043;SDS011;51680;49.806;18.774;2023-12-07T02:09:52;165.60;;;76.32;;
41043;SDS011;51680;49.806;18.774;2023-12-07T02:15:56;165.43;;;77.22;;
41043;SDS011;51680;49.806;18.774;2023-12-07T02:19:03;162.77;;;72.80;;
41043;SDS011;51680;49.806;18.774;2023-12-07T02:22:22;169.10;;;79.60;;
41043;SDS011;51680;49.806;18.774;2023-12-07T02:25:31;164.40;;;77.22;;
41043;SDS011;51680;49.806;18.774;2023-12-07T02:28:39;161.52;;;74.07;;
41043;SDS011;51680;49.806;18.774;2023-12-07T02:31:42;164.35;;;76.30;;
41043;SDS011;51680;49.806;18.774;2023-12-07T02:34:44;171.73;;;78.18;;
41043;SDS011;51680;49.806;18.774;2023-12-07T02:37:46;158.57;;;74.57;;
41043;SDS011;51680;49.806;18.774;2023-12-07T02:40:50;165.60;;;76.28;;
41043;SDS011;51680;49.806;18.774;2023-12-07T02:43:56;153.90;;;70.65;;
41043;SDS011;51680;49.806;18.774;2023-12-07T02:50:00;148.90;;;69.65;;
41043;SDS011;51680;49.806;18.774;2023-12-07T02:53:02;151.07;;;70.78;;
41043;SDS011;51680;49.806;18.774;2023-12-07T02:56:05;161.20;;;73.68;;
41043;SDS011;51680;49.806;18.774;2023-12-07T02:59:09;157.90;;;72.55;;
41043;SDS011;51680;49.806;18.774;2023-12-07T03:02:11;144.48;;;66.93;;
41043;SDS011;51680;49.806;18.774;2023-12-07T03:05:13;146.95;;;67.90;;
41043;SDS011;51680;49.806;18.774;2023-12-07T03:08:15;147.65;;;68.97;;
41043;SDS011;51680;49.806;18.774;2023-12-07T03:11:17;144.75;;;67.60;;
41043;SDS011;51680;49.806;18.774;2023-12-07T03:14:20;150.85;;;67.75;;
41043;SDS011;51680;49.806;18.774;2023-12-07T03:17:22;146.60;;;65.00;;
41043;SDS011;51680;49.806;18.774;2023-12-07T03:20:24;144.77;;;65.88;;
41043;SDS011;51680;49.806;18.774;2023-12-07T03:23:26;155.05;;;68.93;;
41043;SDS011;51680;49.806;18.774;2023-12-07T03:26:29;149.85;;;64.75;;
41043;SDS011;51680;49.806;18.774;2023-12-07T03:29:32;147.98;;;67.00;;
41043;SDS011;51680;49.806;18.774;2023-12-07T03:32:34;151.00;;;65.47;;
41043;SDS011;51680;49.806;18.774;2023-12-07T03:35:36;148.27;;;67.07;;
41043;SDS011;51680;49.806;18.774;2023-12-07T03:38:38;150.60;;;65.80;;
41043;SDS011;51680;49.806;18.774;2023-12-07T03:41:58;150.88;;;66.15;;
41043;SDS011;51680;49.806;18.774;2023-12-07T03:45:02;149.27;;;67.50;;
41043;SDS011;51680;49.806;18.774;2023-12-07T03:48:04;155.48;;;68.47;;
41043;SDS011;51680;49.806;18.774;2023-12-07T03:51:06;152.25;;;67.30;;
41043;SDS011;51680;49.806;18.774;2023-12-07T03:54:09;150.40;;;63.88;;
41043;SDS011;51680;49.806;18.774;2023-12-07T03:57:11;149.70;;;65.80;;
41043;SDS011;51680;49.806;18.774;2023-12-07T04:00:14;140.52;;;64.03;;
41043;SDS011;51680;49.806;18.774;2023-12-07T04:03:17;145.00;;;65.05;;
41043;SDS011;51680;49.806;18.774;2023-12-07T04:06:19;147.73;;;65.88;;
41043;SDS011;51680;49.806;18.774;2023-12-07T04:09:21;139.85;;;61.58;;
41043;SDS011;51680;49.806;18.774;2023-12-07T04:12:23;141.77;;;63.05;;
41043;SDS011;51680;49.806;18.774;2023-12-07T04:15:26;142.40;;;63.25;;
41043;SDS011;51680;49.806;18.774;2023-12-07T04:18:28;145.45;;;61.63;;
41043;SDS011;51680;49.806;18.774;2023-12-07T04:21:30;145.35;;;62.47;;
41043;SDS011;51680;49.806;18.774;2023-12-07T04:24:32;134.00;;;59.80;;
41043;SDS011;51680;49.806;18.774;2023-12-07T04:27:34;143.13;;;63.78;;
41043;SDS011;51680;49.806;18.774;2023-12-07T04:30:38;144.52;;;63.15;;
41043;SDS011;51680;49.806;18.774;2023-12-07T04:36:42;135.60;;;61.67;;
41043;SDS011;51680;49.806;18.774;2023-12-07T04:39:44;134.25;;;60.78;;
41043;SDS011;51680;49.806;18.774;2023-12-07T04:42:46;133.60;;;60.58;;
41043;SDS011;51680;49.806;18.774;2023-12-07T04:45:49;136.82;;;58.38;;
41043;SDS011;51680;49.806;18.774;2023-12-07T04:48:51;132.52;;;60.05;;
41043;SDS011;51680;49.806;18.774;2023-12-07T04:51:53;139.95;;;63.10;;
41043;SDS011;51680;49.806;18.774;2023-12-07T04:54:55;136.25;;;62.00;;
41043;SDS011;51680;49.806;18.774;2023-12-07T04:57:57;139.23;;;60.60;;
41043;SDS011;51680;49.806;18.774;2023-12-07T05:01:00;148.20;;;63.20;;
41043;SDS011;51680;49.806;18.774;2023-12-07T05:04:04;146.52;;;63.53;;
41043;SDS011;51680;49.806;18.774;2023-12-07T05:07:25;147.30;;;63.33;;
41043;SDS011;51680;49.806;18.774;2023-12-07T05:10:27;146.02;;;62.28;;
41043;SDS011;51680;49.806;18.774;2023-12-07T05:13:29;136.25;;;61.35;;
41043;SDS011;51680;49.806;18.774;2023-12-07T05:16:34;130.60;;;59.58;;
41043;SDS011;51680;49.806;18.774;2023-12-07T05:19:35;138.60;;;60.78;;
41043;SDS011;51680;49.806;18.774;2023-12-07T05:22:38;137.18;;;60.58;;
41043;SDS011;51680;49.806;18.774;2023-12-07T05:25:40;133.88;;;59.58;;
41043;SDS011;51680;49.806;18.774;2023-12-07T05:28:41;129.55;;;59.00;;
41043;SDS011;51680;49.806;18.774;2023-12-07T05:31:47;136.55;;;61.17;;
41043;SDS011;51680;49.806;18.774;2023-12-07T05:34:50;130.27;;;58.88;;
41043;SDS011;51680;49.806;18.774;2023-12-07T05:37:52;126.93;;;58.63;;
41043;SDS011;51680;49.806;18.774;2023-12-07T05:40:54;134.65;;;59.25;;
41043;SDS011;51680;49.806;18.774;2023-12-07T05:43:56;133.70;;;61.75;;
41043;SDS011;51680;49.806;18.774;2023-12-07T05:46:59;129.23;;;60.90;;
41043;SDS011;51680;49.806;18.774;2023-12-07T05:50:01;141.10;;;63.30;;
41043;SDS011;51680;49.806;18.774;2023-12-07T05:53:04;135.20;;;60.00;;
41043;SDS011;51680;49.806;18.774;2023-12-07T05:56:07;133.68;;;59.33;;
41043;SDS011;51680;49.806;18.774;2023-12-07T05:59:09;138.27;;;62.57;;
41043;SDS011;51680;49.806;18.774;2023-12-07T06:02:13;132.18;;;62.40;;
41043;SDS011;51680;49.806;18.774;2023-12-07T06:05:15;155.02;;;70.13;;
41043;SDS011;51680;49.806;18.774;2023-12-07T06:08:35;154.00;;;69.95;;
41043;SDS011;51680;49.806;18.774;2023-12-07T06:11:37;146.55;;;67.85;;
41043;SDS011;51680;49.806;18.774;2023-12-07T06:14:41;148.50;;;68.75;;
41043;SDS011;51680;49.806;18.774;2023-12-07T06:17:44;152.88;;;72.55;;
41043;SDS011;51680;49.806;18.774;2023-12-07T06:20:46;154.00;;;71.40;;
41043;SDS011;51680;49.806;18.774;2023-12-07T06:23:48;157.00;;;71.47;;
41043;SDS011;51680;49.806;18.774;2023-12-07T06:26:50;153.75;;;69.47;;
41043;SDS011;51680;49.806;18.774;2023-12-07T06:29:52;146.93;;;66.32;;
41043;SDS011;51680;49.806;18.774;2023-12-07T06:32:56;140.05;;;65.85;;
41043;SDS011;51680;49.806;18.774;2023-12-07T06:35:57;136.85;;;64.07;;
41043;SDS011;51680;49.806;18.774;2023-12-07T06:38:59;140.93;;;64.90;;
41043;SDS011;51680;49.806;18.774;2023-12-07T06:42:01;143.32;;;65.85;;
41043;SDS011;51680;49.806;18.774;2023-12-07T06:45:04;137.48;;;64.28;;
41043;SDS011;51680;49.806;18.774;2023-12-07T06:48:12;134.00;;;62.00;;
41043;SDS011;51680;49.806;18.774;2023-12-07T06:51:32;138.15;;;63.40;;
41043;SDS011;51680;49.806;18.774;2023-12-07T06:54:35;134.82;;;61.60;;
41043;SDS011;51680;49.806;18.774;2023-12-07T06:57:37;133.15;;;61.28;;
41043;SDS011;51680;49.806;18.774;2023-12-07T07:00:39;138.10;;;61.90;;
41043;SDS011;51680;49.806;18.774;2023-12-07T07:03:42;141.02;;;63.08;;
41043;SDS011;51680;49.806;18.774;2023-12-07T07:06:44;132.98;;;60.08;;
41043;SDS011;51680;49.806;18.774;2023-12-07T07:09:47;135.45;;;61.78;;
41043;SDS011;51680;49.806;18.774;2023-12-07T07:12:49;126.55;;;60.00;;
41043;SDS011;51680;49.806;18.774;2023-12-07T07:15:51;127.03;;;58.95;;
41043;SDS011;51680;49.806;18.774;2023-12-07T07:18:56;130.98;;;61.00;;
41043;SDS011;51680;49.806;18.774;2023-12-07T07:21:58;143.23;;;67.25;;
41043;SDS011;51680;49.806;18.774;2023-12-07T07:25:00;148.30;;;68.75;;
41043;SDS011;51680;49.806;18.774;2023-12-07T07:28:03;155.57;;;73.40;;
41043;SDS011;51680;49.806;18.774;2023-12-07T07:31:05;154.50;;;74.43;;
41043;SDS011;51680;49.806;18.774;2023-12-07T07:34:08;150.45;;;74.30;;
41043;SDS011;51680;49.806;18.774;2023-12-07T07:37:10;158.30;;;74.63;;
41043;SDS011;51680;49.806;18.774;2023-12-07T07:40:12;155.13;;;74.75;;
41043;SDS011;51680;49.806;18.774;2023-12-07T07:43:14;148.30;;;70.00;;
41043;SDS011;51680;49.806;18.774;2023-12-07T07:46:16;158.40;;;73.68;;
41043;SDS011;51680;49.806;18.774;2023-12-07T07:49:20;156.52;;;70.68;;
41043;SDS011;51680;49.806;18.774;2023-12-07T07:52:22;154.45;;;71.10;;
41043;SDS011;51680;49.806;18.774;2023-12-07T07:55:24;162.43;;;68.20;;
41043;SDS011;51680;49.806;18.774;2023-12-07T07:58:26;151.30;;;67.80;;
41043;SDS011;51680;49.806;18.774;2023-12-07T08:01:28;142.27;;;64.68;;
41043;SDS011;51680;49.806;18.774;2023-12-07T08:04:50;131.93;;;61.78;;
41043;SDS011;51680;49.806;18.774;2023-12-07T08:07:53;136.43;;;65.47;;
41043;SDS011;51680;49.806;18.774;2023-12-07T08:10:55;133.02;;;61.42;;
41043;SDS011;51680;49.806;18.774;2023-12-07T08:13:57;131.98;;;62.40;;
41043;SDS011;51680;49.806;18.774;2023-12-07T08:16:59;128.93;;;60.08;;
41043;SDS011;51680;49.806;18.774;2023-12-07T08:20:03;129.15;;;59.45;;
41043;SDS011;51680;49.806;18.774;2023-12-07T08:23:07;135.68;;;62.80;;
41043;SDS011;51680;49.806;18.774;2023-12-07T08:26:09;131.60;;;61.10;;
41043;SDS011;51680;49.806;18.774;2023-12-07T08:29:30;136.75;;;58.40;;
41043;SDS011;51680;49.806;18.774;2023-12-07T08:32:32;129.35;;;59.88;;
41043;SDS011;51680;49.806;18.774;2023-12-07T08:35:35;131.82;;;61.60;;
41043;SDS011;51680;49.806;18.774;2023-12-07T08:38:37;129.13;;;59.35;;
41043;SDS011;51680;49.806;18.774;2023-12-07T08:41:39;134.35;;;61.72;;
41043;SDS011;51680;49.806;18.774;2023-12-07T08:44:42;126.85;;;59.75;;
41043;SDS011;51680;49.806;18.774;2023-12-07T08:47:44;129.52;;;62.25;;
41043;SDS011;51680;49.806;18.774;2023-12-07T08:50:47;138.43;;;60.65;;
41043;SDS011;51680;49.806;18.774;2023-12-07T08:53:49;131.23;;;61.88;;
41043;SDS011;51680;49.806;18.774;2023-12-07T08:56:52;142.20;;;67.28;;
41043;SDS011;51680;49.806;18.774;2023-12-07T08:59:54;145.60;;;69.40;;
41043;SDS011;51680;49.806;18.774;2023-12-07T09:02:56;147.88;;;69.63;;
41043;SDS011;51680;49.806;18.774;2023-12-07T09:06:00;141.73;;;65.22;;
41043;SDS011;51680;49.806;18.774;2023-12-07T09:09:02;141.38;;;67.43;;
41043;SDS011;51680;49.806;18.774;2023-12-07T09:12:05;130.05;;;63.90;;
41043;SDS011;51680;49.806;18.774;2023-12-07T09:15:08;138.98;;;65.55;;
41043;SDS011;51680;49.806;18.774;2023-12-07T09:18:11;129.23;;;61.95;;
41043;SDS011;51680;49.806;18.774;2023-12-07T09:21:14;136.20;;;64.43;;
41043;SDS011;51680;49.806;18.774;2023-12-07T09:24:16;131.20;;;62.92;;
41043;SDS011;51680;49.806;18.774;2023-12-07T09:27:18;130.07;;;61.92;;
41043;SDS011;51680;49.806;18.774;2023-12-07T09:30:39;129.75;;;61.30;;
41043;SDS011;51680;49.806;18.774;2023-12-07T09:33:41;126.65;;;62.97;;
41043;SDS011;51680;49.806;18.774;2023-12-07T09:36:44;127.85;;;62.00;;
41043;SDS011;51680;49.806;18.774;2023-12-07T09:42:48;130.35;;;60.70;;
41043;SDS011;51680;49.806;18.774;2023-12-07T09:45:51;139.30;;;64.93;;
41043;SDS011;51680;49.806;18.774;2023-12-07T09:48:55;129.35;;;62.97;;
41043;SDS011;51680;49.806;18.774;2023-12-07T09:51:59;139.07;;;67.68;;
41043;SDS011;51680;49.806;18.774;2023-12-07T09:55:02;143.18;;;66.90;;
41043;SDS011;51680;49.806;18.774;2023-12-07T09:58:05;138.50;;;66.80;;
41043;SDS011;51680;49.806;18.774;2023-12-07T10:01:08;144.18;;;70.28;;
41043;SDS011;51680;49.806;18.774;2023-12-07T10:04:18;143.70;;;69.65;;
41043;SDS011;51680;49.806;18.774;2023-12-07T10:07:27;147.88;;;71.10;;
41043;SDS011;51680;49.806;18.774;2023-12-07T10:10:34;142.73;;;69.00;;
41043;SDS011;51680;49.806;18.774;2023-12-07T10:13:37;138.95;;;69.20;;
41043;SDS011;51680;49.806;18.774;2023-12-07T10:20:06;140.60;;;68.82;;
41043;SDS011;51680;49.806;18.774;2023-12-07T10:23:11;138.30;;;67.05;;
41043;SDS011;51680;49.806;18.774;2023-12-07T10:26:13;148.85;;;70.85;;
41043;SDS011;51680;49.806;18.774;2023-12-07T10:29:19;144.65;;;70.45;;
41043;SDS011;51680;49.806;18.774;2023-12-07T10:32:23;148.55;;;70.00;;
41043;SDS011;51680;49.806;18.774;2023-12-07T10:35:25;143.07;;;70.95;;
41043;SDS011;51680;49.806;18.774;2023-12-07T10:41:33;144.48;;;69.97;;
41043;SDS011;51680;49.806;18.774;2023-12-07T10:44:35;146.55;;;69.43;;
41043;SDS011;51680;49.806;18.774;2023-12-07T10:47:43;150.82;;;72.47;;
41043;SDS011;51680;49.806;18.774;2023-12-07T10:50:46;143.90;;;72.63;;
41043;SDS011;51680;49.806;18.774;2023-12-07T10:53:52;147.63;;;69.07;;
41043;SDS011;51680;49.806;18.774;2023-12-07T10:56:56;142.27;;;69.72;;
41043;SDS011;51680;49.806;18.774;2023-12-07T11:00:03;141.43;;;70.53;;
41043;SDS011;51680;49.806;18.774;2023-12-07T11:03:05;140.83;;;70.00;;
41043;SDS011;51680;49.806;18.774;2023-12-07T11:06:08;143.85;;;70.82;;
41043;SDS011;51680;49.806;18.774;2023-12-07T11:09:13;148.07;;;69.90;;
41043;SDS011;51680;49.806;18.774;2023-12-07T11:12:29;142.85;;;71.15;;
41043;SDS011;51680;49.806;18.774;2023-12-07T11:15:36;144.43;;;72.00;;
41043;SDS011;51680;49.806;18.774;2023-12-07T11:18:38;150.32;;;71.28;;
41043;SDS011;51680;49.806;18.774;2023-12-07T11:21:40;149.63;;;72.80;;
41043;SDS011;51680;49.806;18.774;2023-12-07T11:24:57;156.90;;;74.20;;
41043;SDS011;51680;49.806;18.774;2023-12-07T11:28:01;146.05;;;70.43;;
41043;SDS011;51680;49.806;18.774;2023-12-07T11:31:05;146.20;;;71.80;;
41043;SDS011;51680;49.806;18.774;2023-12-07T11:37:14;151.65;;;72.85;;
41043;SDS011;51680;49.806;18.774;2023-12-07T11:40:19;152.63;;;73.53;;
41043;SDS011;51680;49.806;18.774;2023-12-07T11:43:30;151.48;;;71.18;;
41043;SDS011;51680;49.806;18.774;2023-12-07T11:46:38;152.50;;;72.47;;
41043;SDS011;51680;49.806;18.774;2023-12-07T11:49:40;154.13;;;73.13;;
41043;SDS011;51680;49.806;18.774;2023-12-07T11:52:42;155.07;;;73.63;;
41043;SDS011;51680;49.806;18.774;2023-12-07T11:55:47;154.50;;;74.20;;
41043;SDS011;51680;49.806;18.774;2023-12-07T11:58:49;148.88;;;73.90;;
41043;SDS011;51680;49.806;18.774;2023-12-07T12:01:53;230.50;;;128.13;;
41043;SDS011;51680;49.806;18.774;2023-12-07T12:05:13;161.85;;;84.43;;
41043;SDS011;51680;49.806;18.774;2023-12-07T12:08:15;150.55;;;76.88;;
41043;SDS011;51680;49.806;18.774;2023-12-07T12:11:19;156.48;;;74.68;;
41043;SDS011;51680;49.806;18.774;2023-12-07T12:14:21;153.40;;;74.85;;
41043;SDS011;51680;49.806;18.774;2023-12-07T12:17:23;145.20;;;71.78;;
41043;SDS011;51680;49.806;18.774;2023-12-07T12:20:26;157.75;;;79.78;;
41043;SDS011;51680;49.806;18.774;2023-12-07T12:23:28;154.70;;;76.05;;
41043;SDS011;51680;49.806;18.774;2023-12-07T12:26:31;143.80;;;70.90;;
41043;SDS011;51680;49.806;18.774;2023-12-07T12:29:35;144.50;;;71.18;;
41043;SDS011;51680;49.806;18.774;2023-12-07T12:32:42;155.20;;;84.07;;
41043;SDS011;51680;49.806;18.774;2023-12-07T12:35:44;140.15;;;67.32;;
41043;SDS011;51680;49.806;18.774;2023-12-07T12:38:46;142.80;;;69.82;;
41043;SDS011;51680;49.806;18.774;2023-12-07T12:41:55;146.80;;;68.28;;
41043;SDS011;51680;49.806;18.774;2023-12-07T12:44:57;174.90;;;81.40;;
41043;SDS011;51680;49.806;18.774;2023-12-07T12:47:59;159.75;;;79.82;;
41043;SDS011;51680;49.806;18.774;2023-12-07T12:51:07;136.13;;;69.10;;
41043;SDS011;51680;49.806;18.774;2023-12-07T12:54:09;130.65;;;64.50;;
41043;SDS011;51680;49.806;18.774;2023-12-07T12:57:13;136.43;;;67.85;;
41043;SDS011;51680;49.806;18.774;2023-12-07T13:00:16;136.90;;;68.43;;
41043;SDS011;51680;49.806;18.774;2023-12-07T13:03:18;129.85;;;62.22;;
41043;SDS011;51680;49.806;18.774;2023-12-07T13:06:20;114.97;;;57.13;;
41043;SDS011;51680;49.806;18.774;2023-12-07T13:09:22;119.00;;;58.90;;
41043;SDS011;51680;49.806;18.774;2023-12-07T13:12:25;137.73;;;70.78;;
41043;SDS011;51680;49.806;18.774;2023-12-07T13:15:28;133.63;;;65.90;;
41043;SDS011;51680;49.806;18.774;2023-12-07T13:18:30;127.75;;;61.55;;
41043;SDS011;51680;49.806;18.774;2023-12-07T13:21:32;139.45;;;70.65;;
41043;SDS011;51680;49.806;18.774;2023-12-07T13:24:34;148.77;;;71.55;;
41043;SDS011;51680;49.806;18.774;2023-12-07T13:27:38;151.13;;;73.20;;
41043;SDS011;51680;49.806;18.774;2023-12-07T13:30:40;142.45;;;71.90;;
41043;SDS011;51680;49.806;18.774;2023-12-07T13:33:42;145.75;;;72.53;;
41043;SDS011;51680;49.806;18.774;2023-12-07T13:37:03;167.32;;;76.88;;
41043;SDS011;51680;49.806;18.774;2023-12-07T13:40:05;164.00;;;77.78;;
41043;SDS011;51680;49.806;18.774;2023-12-07T13:43:11;158.85;;;78.18;;
41043;SDS011;51680;49.806;18.774;2023-12-07T13:46:13;153.80;;;73.57;;
41043;SDS011;51680;49.806;18.774;2023-12-07T13:49:34;159.77;;;79.13;;
41043;SDS011;51680;49.806;18.774;2023-12-07T13:52:38;157.88;;;78.25;;
41043;SDS011;51680;49.806;18.774;2023-12-07T13:55:40;153.77;;;74.65;;
41043;SDS011;51680;49.806;18.774;2023-12-07T13:58:44;153.75;;;74.38;;
41043;SDS011;51680;49.806;18.774;2023-12-07T14:01:46;156.70;;;77.00;;
41043;SDS011;51680;49.806;18.774;2023-12-07T14:04:48;169.27;;;76.60;;
41043;SDS011;51680;49.806;18.774;2023-12-07T14:07:51;159.20;;;73.90;;
41043;SDS011;51680;49.806;18.774;2023-12-07T14:10:53;159.55;;;75.80;;
41043;SDS011;51680;49.806;18.774;2023-12-07T14:13:56;160.23;;;75.90;;
41043;SDS011;51680;49.806;18.774;2023-12-07T14:16:58;153.95;;;73.78;;
41043;SDS011;51680;49.806;18.774;2023-12-07T14:20:00;161.10;;;77.68;;
41043;SDS011;51680;49.806;18.774;2023-12-07T14:23:04;176.75;;;87.68;;
41043;SDS011;51680;49.806;18.774;2023-12-07T14:26:06;157.18;;;80.22;;
41043;SDS011;51680;49.806;18.774;2023-12-07T14:29:09;152.05;;;77.50;;
41043;SDS011;51680;49.806;18.774;2023-12-07T14:32:16;157.95;;;79.38;;
41043;SDS011;51680;49.806;18.774;2023-12-07T14:35:19;170.30;;;85.47;;
41043;SDS011;51680;49.806;18.774;2023-12-07T14:38:21;167.48;;;82.80;;
41043;SDS011;51680;49.806;18.774;2023-12-07T14:41:23;150.57;;;74.82;;
41043;SDS011;51680;49.806;18.774;2023-12-07T14:44:27;147.43;;;72.65;;
41043;SDS011;51680;49.806;18.774;2023-12-07T14:47:29;156.20;;;77.63;;
41043;SDS011;51680;49.806;18.774;2023-12-07T14:50:31;165.90;;;80.43;;
41043;SDS011;51680;49.806;18.774;2023-12-07T14:53:33;164.68;;;79.00;;
41043;SDS011;51680;49.806;18.774;2023-12-07T14:56:35;160.88;;;77.28;;
41043;SDS011;51680;49.806;18.774;2023-12-07T14:59:39;169.07;;;80.03;;
41043;SDS011;51680;49.806;18.774;2023-12-07T15:02:40;162.85;;;78.00;;
41043;SDS011;51680;49.806;18.774;2023-12-07T15:05:43;164.43;;;80.78;;
41043;SDS011;51680;49.806;18.774;2023-12-07T15:08:45;157.20;;;78.05;;
41043;SDS011;51680;49.806;18.774;2023-12-07T15:11:47;159.68;;;78.95;;
41043;SDS011;51680;49.806;18.774;2023-12-07T15:14:51;148.63;;;75.90;;
41043;SDS011;51680;49.806;18.774;2023-12-07T15:17:52;171.90;;;81.65;;
41043;SDS011;51680;49.806;18.774;2023-12-07T15:20:54;177.40;;;81.05;;
41043;SDS011;51680;49.806;18.774;2023-12-07T15:23:57;164.15;;;80.07;;
41043;SDS011;51680;49.806;18.774;2023-12-07T15:27:00;161.60;;;82.10;;
41043;SDS011;51680;49.806;18.774;2023-12-07T15:30:04;167.23;;;79.70;;
41043;SDS011;51680;49.806;18.774;2023-12-07T15:36:28;160.00;;;75.32;;
41043;SDS011;51680;49.806;18.774;2023-12-07T15:39:30;160.85;;;74.32;;
41043;SDS011;51680;49.806;18.774;2023-12-07T15:42:32;152.40;;;74.82;;
41043;SDS011;51680;49.806;18.774;2023-12-07T15:45:36;153.95;;;73.13;;
41043;SDS011;51680;49.806;18.774;2023-12-07T15:48:39;161.07;;;74.60;;
41043;SDS011;51680;49.806;18.774;2023-12-07T15:51:41;152.50;;;75.65;;
41043;SDS011;51680;49.806;18.774;2023-12-07T15:54:43;153.27;;;76.30;;
41043;SDS011;51680;49.806;18.774;2023-12-07T15:57:45;168.27;;;76.85;;
41043;SDS011;51680;49.806;18.774;2023-12-07T16:00:48;170.55;;;77.90;;
41043;SDS011;51680;49.806;18.774;2023-12-07T16:03:50;148.00;;;69.82;;
41043;SDS011;51680;49.806;18.774;2023-12-07T16:06:52;155.50;;;73.78;;
41043;SDS011;51680;49.806;18.774;2023-12-07T16:09:55;158.75;;;75.38;;
41043;SDS011;51680;49.806;18.774;2023-12-07T16:12:57;158.40;;;73.97;;
41043;SDS011;51680;49.806;18.774;2023-12-07T16:16:01;155.32;;;73.43;;
41043;SDS011;51680;49.806;18.774;2023-12-07T16:19:03;164.82;;;74.43;;
41043;SDS011;51680;49.806;18.774;2023-12-07T16:22:05;175.93;;;83.88;;
41043;SDS011;51680;49.806;18.774;2023-12-07T16:25:08;163.80;;;78.28;;
41043;SDS011;51680;49.806;18.774;2023-12-07T16:28:10;162.93;;;76.53;;
41043;SDS011;51680;49.806;18.774;2023-12-07T16:31:14;178.05;;;79.20;;
41043;SDS011;51680;49.806;18.774;2023-12-07T16:34:16;179.68;;;81.28;;
41043;SDS011;51680;49.806;18.774;2023-12-07T16:37:18;173.52;;;80.68;;
41043;SDS011;51680;49.806;18.774;2023-12-07T16:40:21;189.27;;;86.72;;
41043;SDS011;51680;49.806;18.774;2023-12-07T16:43:23;176.75;;;80.85;;
41043;SDS011;51680;49.806;18.774;2023-12-07T16:46:27;170.02;;;78.85;;
41043;SDS011;51680;49.806;18.774;2023-12-07T16:52:31;182.50;;;81.05;;
41043;SDS011;51680;49.806;18.774;2023-12-07T16:55:33;183.93;;;82.55;;
41043;SDS011;51680;49.806;18.774;2023-12-07T16:58:36;182.05;;;78.05;;
41043;SDS011;51680;49.806;18.774;2023-12-07T17:01:39;180.73;;;80.60;;
41043;SDS011;51680;49.806;18.774;2023-12-07T17:04:41;156.80;;;70.15;;
41043;SDS011;51680;49.806;18.774;2023-12-07T17:07:43;159.55;;;73.93;;
41043;SDS011;51680;49.806;18.774;2023-12-07T17:10:45;149.02;;;70.82;;
41043;SDS011;51680;49.806;18.774;2023-12-07T17:13:47;145.52;;;69.03;;
41043;SDS011;51680;49.806;18.774;2023-12-07T17:16:51;132.68;;;60.45;;
41043;SDS011;51680;49.806;18.774;2023-12-07T17:19:53;124.30;;;58.50;;
41043;SDS011;51680;49.806;18.774;2023-12-07T17:23:15;132.68;;;60.05;;
41043;SDS011;51680;49.806;18.774;2023-12-07T17:26:17;114.70;;;52.88;;
41043;SDS011;51680;49.806;18.774;2023-12-07T17:29:19;117.63;;;53.72;;
41043;SDS011;51680;49.806;18.774;2023-12-07T17:32:23;110.18;;;50.88;;
41043;SDS011;51680;49.806;18.774;2023-12-07T17:35:25;102.15;;;49.33;;
41043;SDS011;51680;49.806;18.774;2023-12-07T17:38:27;109.10;;;51.05;;
41043;SDS011;51680;49.806;18.774;2023-12-07T17:41:29;102.70;;;50.63;;
41043;SDS011;51680;49.806;18.774;2023-12-07T17:44:31;135.93;;;71.07;;
41043;SDS011;51680;49.806;18.774;2023-12-07T17:47:53;98.13;;;48.40;;
41043;SDS011;51680;49.806;18.774;2023-12-07T17:50:55;97.45;;;47.40;;
41043;SDS011;51680;49.806;18.774;2023-12-07T17:53:57;103.13;;;53.17;;
41043;SDS011;51680;49.806;18.774;2023-12-07T17:56:59;113.35;;;54.97;;